Time;durP1;ratioP1;P1;durP2;ratioP2;P2;SDS_P1;SDS_P2;PMS_P1;PMS_P2;Temp;Humidity;BMP_temperature;BMP_pressure;BME280_temperature;BME280_humidity;BME280_pressure;Samples;Min_cycle;Max_cycle;Signal;HPM_P1;HPM_P2
2023/10/17 00:00:13;;;;;;;0.68;0.68;;;;;;;3.84;78.75;97921.81;5052208;28;20045;-73
2023/10/17 00:02:41;;;;;;;0.65;0.65;;;;;;;3.77;79.01;97923.38;5054762;28;20503;-73
2023/10/17 00:05:14;;;;;;;0.77;0.77;;;;;;;3.69;79.63;97921.47;5054404;28;20482;-73
2023/10/17 00:07:44;;;;;;;0.63;0.63;;;;;;;3.74;79.59;97931.56;5054775;28;20051;-75
2023/10/17 00:10:15;;;;;;;0.70;0.70;;;;;;;3.69;79.61;97937.31;5053940;28;20044;-73
2023/10/17 00:12:49;;;;;;;0.68;0.68;;;;;;;3.37;81.21;97933.34;5053070;28;20041;-72
2023/10/17 00:15:27;;;;;;;0.80;0.80;;;;;;;3.41;81.15;97926.81;5053265;28;20102;-72
2023/10/17 00:18:00;;;;;;;0.55;0.55;;;;;;;3.49;80.38;97929.56;5054116;28;20041;-72
2023/10/17 00:20:37;;;;;;;0.95;0.95;;;;;;;3.56;80.19;97931.50;5053360;28;20041;-73
2023/10/17 00:23:06;;;;;;;1.00;1.00;;;;;;;3.41;80.68;97929.47;5054174;28;20498;-72
2023/10/17 00:25:37;;;;;;;0.30;0.30;;;;;;;3.35;80.97;97932.63;5050444;28;20407;-72
2023/10/17 00:28:05;;;;;;;0.98;0.98;;;;;;;3.15;81.48;97926.56;5052925;28;20123;-72
2023/10/17 00:30:33;;;;;;;1.00;1.00;;;;;;;3.07;82.35;97929.91;5051915;28;20044;-73
2023/10/17 00:33:01;;;;;;;0.57;0.57;;;;;;;3.13;82.00;97923.22;5053221;28;20029;-74
2023/10/17 00:35:36;;;;;;;0.60;0.60;;;;;;;3.21;81.70;97916.31;5052446;28;20077;-74
2023/10/17 00:38:07;;;;;;;0.30;0.30;;;;;;;3.13;82.16;97910.88;5052300;28;20392;-74
2023/10/17 00:40:45;;;;;;;0.68;0.68;;;;;;;2.95;83.53;97918.66;5051503;28;20081;-74
2023/10/17 00:43:13;;;;;;;0.70;0.70;;;;;;;2.89;84.33;97911.31;5054472;28;20571;-73
2023/10/17 00:45:43;;;;;;;0.70;0.70;;;;;;;3.00;83.89;97912.97;5053588;28;20055;-74
2023/10/17 00:48:17;;;;;;;0.70;0.70;;;;;;;3.13;83.47;97917.94;5045769;28;20044;-74
2023/10/17 00:50:48;;;;;;;0.73;0.73;;;;;;;3.14;83.05;97902.00;5051814;28;20059;-74
2023/10/17 00:53:16;;;;;;;0.70;0.70;;;;;;;3.23;82.64;97898.50;5053244;28;20065;-74
2023/10/17 00:55:51;;;;;;;0.55;0.55;;;;;;;3.25;82.68;97896.56;5051538;28;20606;-74
2023/10/17 00:58:21;;;;;;;0.70;0.70;;;;;;;3.24;82.54;97901.97;5052199;28;20742;-74
2023/10/17 01:00:53;;;;;;;0.60;0.60;;;;;;;3.21;82.67;97904.91;5052787;28;20036;-74
2023/10/17 01:03:24;;;;;;;0.80;0.80;;;;;;;3.17;83.25;97898.25;5051669;28;20049;-74
2023/10/17 01:06:10;;;;;;;0.50;0.50;;;;;;;3.10;83.69;97898.00;5052174;28;20411;-74
2023/10/17 01:08:39;;;;;;;0.65;0.65;;;;;;;3.11;83.52;97894.38;5053038;28;20124;-73
2023/10/17 01:11:14;;;;;;;0.75;0.75;;;;;;;3.01;83.60;97893.53;5052950;28;20029;-72
2023/10/17 01:13:44;;;;;;;0.63;0.63;;;;;;;2.91;84.33;97895.34;5051341;28;20049;-73
2023/10/17 01:16:15;;;;;;;1.08;1.08;;;;;;;2.97;84.48;97900.06;5052063;28;20045;-73
2023/10/17 01:18:45;;;;;;;0.63;0.63;;;;;;;3.02;84.09;97904.91;5052323;28;20128;-73
2023/10/17 01:21:14;;;;;;;0.73;0.73;;;;;;;2.91;84.43;97901.44;5051778;28;20040;-73
2023/10/17 01:23:43;;;;;;;1.15;1.15;;;;;;;3.00;84.37;97906.88;5051474;28;20048;-73
2023/10/17 01:26:14;;;;;;;0.73;0.73;;;;;;;3.03;84.01;97907.41;5052530;28;20045;-74
2023/10/17 01:28:46;;;;;;;0.77;0.77;;;;;;;3.01;83.60;97896.16;5051397;28;20094;-74
2023/10/17 01:31:15;;;;;;;0.60;0.60;;;;;;;2.85;84.32;97909.09;5052737;28;20120;-74
2023/10/17 01:33:44;;;;;;;0.52;0.52;;;;;;;2.77;84.37;97908.94;5051136;28;20548;-74
2023/10/17 01:36:12;;;;;;;0.60;0.60;;;;;;;2.81;84.42;97905.06;5052866;28;20507;-73
2023/10/17 01:38:42;;;;;;;0.52;0.52;;;;;;;2.82;84.16;97912.00;5051494;28;20040;-73
2023/10/17 01:41:11;;;;;;;0.75;0.75;;;;;;;2.77;84.42;97906.31;5051555;28;20044;-73
2023/10/17 01:43:41;;;;;;;0.80;0.80;;;;;;;2.76;84.38;97894.94;5052340;28;20128;-72
2023/10/17 01:46:11;;;;;;;0.52;0.52;;;;;;;2.72;84.62;97898.81;5051286;28;20048;-72
2023/10/17 01:48:39;;;;;;;0.28;0.28;;;;;;;2.76;84.34;97902.00;5052498;28;20407;-73
2023/10/17 01:51:07;;;;;;;1.13;0.82;;;;;;;2.75;83.67;97895.91;5051491;28;20058;-72
2023/10/17 01:53:38;;;;;;;0.77;0.77;;;;;;;2.67;84.08;97898.41;5053928;28;20094;-73
2023/10/17 01:56:16;;;;;;;0.75;0.75;;;;;;;2.56;84.51;97904.63;5054016;28;20041;-73
2023/10/17 01:58:48;;;;;;;0.60;0.60;;;;;;;2.59;84.67;97906.19;5049454;28;20076;-73
2023/10/17 02:01:17;;;;;;;0.85;0.85;;;;;;;2.67;84.48;97906.31;5051177;28;20128;-73
2023/10/17 02:03:45;;;;;;;0.98;0.98;;;;;;;2.64;84.26;97897.84;5051249;28;20855;-72
2023/10/17 02:06:16;;;;;;;0.60;0.60;;;;;;;2.59;84.35;97893.00;5052568;28;20496;-72
2023/10/17 02:08:45;;;;;;;0.63;0.63;;;;;;;2.56;84.08;97888.84;5056872;28;20098;-72
2023/10/17 02:11:13;;;;;;;0.65;0.65;;;;;;;2.51;84.37;97887.56;5057645;28;20041;-72
2023/10/17 02:13:42;;;;;;;0.60;0.60;;;;;;;2.46;84.71;97884.53;5053619;28;20147;-72
2023/10/17 02:16:12;;;;;;;0.75;0.75;;;;;;;2.52;84.36;97884.78;5054934;28;20152;-72
2023/10/17 02:18:40;;;;;;;0.60;0.60;;;;;;;2.73;83.75;97886.47;5052720;28;20132;-74
2023/10/17 02:21:08;;;;;;;0.70;0.70;;;;;;;2.68;83.40;97884.28;5053019;28;20055;-74
2023/10/17 02:23:48;;;;;;;1.00;1.00;;;;;;;2.67;83.68;97879.97;5052596;28;20051;-72
2023/10/17 02:26:21;;;;;;;0.65;0.65;;;;;;;2.65;83.54;97875.78;5050922;28;20033;-73
2023/10/17 02:28:50;;;;;;;0.50;0.50;;;;;;;2.60;83.84;97870.13;5049852;28;20048;-72
2023/10/17 02:31:27;;;;;;;0.45;0.45;;;;;;;2.54;84.10;97860.97;5048376;28;20047;-72
2023/10/17 02:33:56;;;;;;;0.63;0.63;;;;;;;2.51;84.16;97864.69;5050532;28;20466;-74
2023/10/17 02:36:24;;;;;;;0.85;0.85;;;;;;;2.44;84.50;97871.50;5076767;22;20049;-73
2023/10/17 02:38:52;;;;;;;0.20;0.20;;;;;;;2.37;84.72;97867.75;5026532;28;20418;-73
2023/10/17 02:41:22;;;;;;;0.70;0.70;;;;;;;2.37;84.91;97867.75;5029961;28;20076;-73
2023/10/17 02:43:52;;;;;;;0.73;0.73;;;;;;;2.40;84.70;97872.72;5029438;28;20096;-74
2023/10/17 02:46:26;;;;;;;0.52;0.52;;;;;;;2.42;84.69;97869.94;5027755;28;20033;-72
2023/10/17 02:48:54;;;;;;;0.88;0.88;;;;;;;2.32;85.28;97869.94;5009393;28;20100;-75
2023/10/17 02:51:33;;;;;;;0.80;0.80;;;;;;;2.39;84.79;97871.03;5007706;28;20164;-73
2023/10/17 02:54:08;;;;;;;0.52;0.52;;;;;;;2.28;85.42;97865.09;5007374;28;20124;-73
2023/10/17 02:56:46;;;;;;;0.75;0.63;;;;;;;2.34;85.42;97861.91;5008155;28;20099;-73
2023/10/17 02:59:17;;;;;;;1.60;0.88;;;;;;;2.35;85.32;97861.78;5009695;28;20050;-74
2023/10/17 03:01:52;;;;;;;2.58;1.15;;;;;;;2.28;85.65;97868.56;5008036;28;20134;-73
2023/10/17 03:04:23;;;;;;;0.43;0.43;;;;;;;2.17;86.15;97866.88;5007853;28;20404;-73
2023/10/17 03:06:53;;;;;;;1.00;1.00;;;;;;;2.08;85.98;97862.41;5007603;28;20045;-73
2023/10/17 03:09:34;;;;;;;0.68;0.68;;;;;;;2.09;86.51;97855.34;5007980;28;20054;-73
2023/10/17 03:12:09;;;;;;;0.80;0.80;;;;;;;2.22;86.68;97863.81;5008694;28;20053;-73
2023/10/17 03:14:40;;;;;;;0.68;0.68;;;;;;;2.18;86.02;97862.44;5007200;28;20080;-72
2023/10/17 03:17:09;;;;;;;0.70;0.70;;;;;;;2.22;85.96;97864.66;5005619;28;20053;-72
2023/10/17 03:19:38;;;;;;;0.82;0.82;;;;;;;2.31;84.81;97868.28;5007802;28;20041;-72
2023/10/17 03:22:18;;;;;;;0.20;0.20;;;;;;;2.13;84.33;97870.75;5008199;28;20408;-72
2023/10/17 03:24:47;;;;;;;0.60;0.60;;;;;;;2.06;85.05;97871.41;5009215;28;20148;-72
2023/10/17 03:27:27;;;;;;;0.88;0.88;;;;;;;2.09;85.16;97877.22;5008319;28;20100;-71
2023/10/17 03:29:55;;;;;;;0.88;0.88;;;;;;;2.01;85.51;97881.50;5007415;28;20715;-71
2023/10/17 03:32:24;;;;;;;0.82;0.82;;;;;;;1.92;85.83;97879.69;5007464;28;20070;-72
2023/10/17 03:34:56;;;;;;;0.80;0.80;;;;;;;2.03;85.31;97879.56;5007668;28;20045;-72
2023/10/17 03:37:28;;;;;;;0.70;0.70;;;;;;;2.09;84.91;97884.28;5009217;28;20046;-72
2023/10/17 03:39:57;;;;;;;0.60;0.60;;;;;;;2.10;84.43;97889.44;5010779;28;20052;-73
2023/10/17 03:42:43;;;;;;;0.65;0.65;;;;;;;2.13;84.33;97894.44;5018035;28;20056;-75
2023/10/17 03:45:16;;;;;;;1.05;1.05;;;;;;;2.19;84.19;97893.88;5016590;28;20044;-72
2023/10/17 03:47:49;;;;;;;0.73;0.73;;;;;;;2.09;84.35;97885.13;5017752;28;20157;-73
2023/10/17 03:50:31;;;;;;;0.77;0.77;;;;;;;2.04;84.55;97882.09;5009562;28;20053;-72
2023/10/17 03:53:05;;;;;;;0.95;0.95;;;;;;;2.19;84.29;97885.16;5009430;28;20049;-72
2023/10/17 03:55:35;;;;;;;0.65;0.65;;;;;;;2.11;84.59;97883.19;5008916;28;20046;-72
2023/10/17 03:58:08;;;;;;;0.68;0.68;;;;;;;2.07;84.27;97875.72;5008788;28;20152;-72
2023/10/17 04:00:43;;;;;;;3.75;0.90;;;;;;;2.12;83.83;97881.41;5008236;28;20054;-72
2023/10/17 04:03:21;;;;;;;0.75;0.75;;;;;;;1.96;84.30;97886.34;5010891;28;20038;-74
2023/10/17 04:05:51;;;;;;;0.85;0.85;;;;;;;1.96;84.85;97887.19;5011851;28;20077;-72
2023/10/17 04:08:26;;;;;;;1.35;1.10;;;;;;;1.72;86.24;97898.03;5011940;28;20045;-72
2023/10/17 04:11:08;;;;;;;1.25;1.00;;;;;;;1.66;87.39;97892.47;5009423;28;20077;-72
2023/10/17 04:13:37;;;;;;;0.52;0.52;;;;;;;1.62;88.04;97899.78;5011801;28;20042;-72
2023/10/17 04:16:10;;;;;;;0.52;0.52;;;;;;;1.76;87.81;97888.91;5011653;28;20459;-71
2023/10/17 04:18:39;;;;;;;1.38;1.38;;;;;;;1.81;87.45;97893.78;5012072;28;20045;-72
2023/10/17 04:21:18;;;;;;;1.55;0.90;;;;;;;1.80;87.12;97898.19;5009295;28;20140;-76
2023/10/17 04:23:49;;;;;;;1.02;1.02;;;;;;;1.83;88.12;97897.94;5010465;28;20485;-74
2023/10/17 04:26:19;;;;;;;1.00;0.73;;;;;;;1.83;88.12;97899.75;5012325;28;20042;-72
2023/10/17 04:28:49;;;;;;;1.65;0.80;;;;;;;1.84;88.89;97899.59;5009169;28;20474;-71
2023/10/17 04:31:25;;;;;;;0.60;0.60;;;;;;;1.80;88.86;97884.22;5011192;28;20042;-72
2023/10/17 04:34:05;;;;;;;0.80;0.80;;;;;;;1.91;88.91;97886.75;5010152;28;20052;-71
2023/10/17 04:36:37;;;;;;;0.82;0.82;;;;;;;1.92;88.11;97887.56;5011828;28;20049;-71
2023/10/17 04:39:18;;;;;;;1.08;0.90;;;;;;;1.91;88.90;97886.75;5010409;28;20115;-71
2023/10/17 04:44:36;;;;;;;1.52;1.42;;;;;;;1.82;88.57;97875.22;5010591;28;20077;-72
2023/10/17 04:49:52;;;;;;;0.75;0.75;;;;;;;1.76;86.48;97867.88;5011858;28;19936;-71
2023/10/17 04:52:21;;;;;;;0.98;0.98;;;;;;;1.81;86.48;97870.91;5012536;28;20133;-71
2023/10/17 04:54:52;;;;;;;0.50;0.50;;;;;;;1.72;86.15;97866.47;5011959;28;20523;-71
2023/10/17 04:57:19;;;;;;;0.93;0.93;;;;;;;1.61;86.59;97863.09;5012138;28;20048;-71
2023/10/17 04:59:59;;;;;;;0.47;0.47;;;;;;;1.69;86.88;97876.41;5011643;28;20389;-72
2023/10/17 05:02:36;;;;;;;0.50;0.50;;;;;;;1.68;86.48;97872.94;5012094;28;20046;-71
2023/10/17 05:05:39;;;;;;;0.75;0.75;;;;;;;1.71;86.33;97874.47;5012752;28;20045;-72
2023/10/17 05:08:21;;;;;;;0.75;0.75;;;;;;;1.83;86.30;97866.38;5012082;28;20041;-71
2023/10/17 06:17:42;;;;;;;0.43;0.43;;;;;;;1.61;85.59;97921.78;5007620;28;20615;-71
2023/10/17 06:20:11;;;;;;;0.90;0.90;;;;;;;1.61;85.54;97934.94;5009153;28;20042;-72
2023/10/17 06:28:25;;;;;;;0.70;0.70;;;;;;;1.46;87.22;97929.16;5025185;28;20050;-72
2023/10/17 06:33:36;;;;;;;0.70;0.70;;;;;;;1.60;85.81;97937.69;5009744;28;20046;-71
2023/10/17 06:36:13;;;;;;;0.73;0.73;;;;;;;1.65;85.31;97944.25;5009815;28;20116;-72
2023/10/17 06:38:46;;;;;;;0.80;0.80;;;;;;;1.56;85.05;97945.00;5009355;28;20551;-71
2023/10/17 06:41:14;;;;;;;0.75;0.75;;;;;;;1.64;85.04;97947.84;5008150;28;20568;-72
2023/10/17 06:43:47;;;;;;;0.80;0.80;;;;;;;1.71;84.49;97951.59;5010097;28;20146;-72
2023/10/17 06:46:14;;;;;;;1.05;1.05;;;;;;;1.73;84.68;97949.69;5009405;28;20113;-71
2023/10/17 06:48:49;;;;;;;0.32;0.32;;;;;;;1.75;84.38;97949.56;5012491;28;20464;-72
2023/10/17 06:51:36;;;;;;;0.70;0.70;;;;;;;1.66;84.68;97942.44;5010743;28;20045;-71
2023/10/17 06:54:07;;;;;;;0.70;0.70;;;;;;;1.65;84.47;97948.69;5011398;28;20116;-71
2023/10/17 06:56:41;;;;;;;0.90;0.90;;;;;;;1.62;84.83;97949.75;5009625;28;20133;-71
2023/10/17 07:02:10;;;;;;;0.70;0.70;;;;;;;1.60;84.87;97956.09;5007377;28;20050;-71
2023/10/17 07:04:40;;;;;;;0.82;0.82;;;;;;;1.52;85.74;97958.56;5007648;28;20042;-71
2023/10/17 07:07:09;;;;;;;0.98;0.98;;;;;;;1.58;86.12;97953.59;5008966;28;20111;-74
2023/10/17 07:09:39;;;;;;;0.80;0.77;;;;;;;1.70;85.97;97964.88;5008446;28;20076;-74
2023/10/17 07:12:13;;;;;;;0.85;0.85;;;;;;;1.69;85.32;97971.94;5008296;28;20073;-72
2023/10/17 07:14:48;;;;;;;0.95;0.82;;;;;;;1.70;85.59;97970.16;5009867;28;20070;-72
2023/10/17 07:17:27;;;;;;;0.85;0.85;;;;;;;1.74;85.24;97959.25;5008704;28;20050;-71
2023/10/17 07:19:59;;;;;;;0.50;0.50;;;;;;;1.90;85.25;97958.75;5008721;28;20049;-72
2023/10/17 07:22:35;;;;;;;0.95;0.95;;;;;;;1.92;84.71;97958.63;5010242;28;20053;-73
2023/10/17 07:25:14;;;;;;;0.77;0.77;;;;;;;1.96;84.15;97965.31;5009280;28;20057;-72
2023/10/17 07:27:44;;;;;;;0.75;0.75;;;;;;;2.01;84.09;97958.66;5009435;28;20048;-72
2023/10/17 07:30:13;;;;;;;0.65;0.65;;;;;;;2.10;83.86;97952.59;5008007;28;20116;-72
2023/10/17 07:32:49;;;;;;;0.80;0.80;;;;;;;2.15;83.32;97955.69;5005577;28;20038;-73
2023/10/17 07:35:23;;;;;;;0.52;0.52;;;;;;;2.13;83.66;97951.50;5008950;28;20441;-72
2023/10/17 07:37:59;;;;;;;0.95;0.95;;;;;;;2.18;83.50;97946.69;5009805;28;20112;-73
2023/10/17 07:40:41;;;;;;;0.60;0.60;;;;;;;2.31;83.75;97947.28;5013127;28;20497;-72
2023/10/17 07:43:09;;;;;;;0.75;0.75;;;;;;;2.32;83.25;97941.03;5013699;28;20041;-72
2023/10/17 07:45:39;;;;;;;0.63;0.63;;;;;;;2.34;83.32;97947.00;5012952;28;20050;-72
2023/10/17 07:50:51;;;;;;;0.73;0.73;;;;;;;2.51;83.41;97940.25;5010684;28;20064;-72
2023/10/17 07:53:22;;;;;;;0.77;0.77;;;;;;;2.64;82.99;97940.84;5016385;28;20045;-73
2023/10/17 07:55:53;;;;;;;0.55;0.55;;;;;;;2.82;82.61;97944.44;5014181;28;20048;-72
2023/10/17 08:01:07;;;;;;;0.70;0.70;;;;;;;2.95;82.18;97941.56;5015965;28;20046;-72
2023/10/17 08:03:41;;;;;;;1.45;1.02;;;;;;;3.09;81.35;97938.50;5012314;28;20092;-72
2023/10/17 08:06:12;;;;;;;0.82;0.82;;;;;;;3.20;81.29;97930.47;5011722;28;20578;-72
2023/10/17 08:08:43;;;;;;;0.68;0.68;;;;;;;3.32;80.51;97924.03;5012489;28;20041;-72
2023/10/17 08:11:26;;;;;;;0.65;0.65;;;;;;;3.39;80.65;97929.59;5011577;28;20070;-73
2023/10/17 08:13:55;;;;;;;0.82;0.82;;;;;;;3.55;80.21;97936.91;5011363;28;20404;-74
2023/10/17 08:16:26;;;;;;;0.75;0.75;;;;;;;3.58;80.54;97934.81;5013019;28;20045;-72
2023/10/17 08:18:58;;;;;;;0.68;0.68;;;;;;;3.64;79.80;97928.97;5012045;28;20101;-73
2023/10/17 08:21:40;;;;;;;;;;;;;;;3.56;80.18;97933.28;5013116;28;20553;-74
2023/10/17 08:24:07;;;;;;;0.68;0.68;;;;;;;3.80;80.01;97927.53;5012798;28;19929;-73
2023/10/17 08:26:42;;;;;;;0.55;0.55;;;;;;;3.97;79.20;97921.50;5011351;28;20042;-73
2023/10/17 08:29:10;;;;;;;0.98;0.98;;;;;;;4.05;78.92;97917.16;5011628;28;20044;-73
2023/10/17 08:31:44;;;;;;;1.05;1.05;;;;;;;4.10;78.63;97914.09;5007783;28;20635;-73
2023/10/17 08:34:14;;;;;;;0.93;0.93;;;;;;;4.29;78.23;97913.97;5009618;28;20584;-73
2023/10/17 08:36:42;;;;;;;0.85;0.85;;;;;;;4.35;77.76;97912.56;5011613;28;20064;-75
2023/10/17 08:41:53;;;;;;;0.88;0.88;;;;;;;4.61;77.97;97908.22;5011968;28;20042;-75
2023/10/17 08:44:21;;;;;;;0.98;0.98;;;;;;;4.66;77.75;97918.38;5011937;28;20038;-74
2023/10/17 08:46:54;;;;;;;0.65;0.65;;;;;;;4.74;77.66;97923.72;5010789;28;20054;-75
2023/10/17 08:49:22;;;;;;;0.60;0.60;;;;;;;4.77;77.07;97918.97;5011995;28;20073;-74
2023/10/17 08:51:50;;;;;;;0.82;0.82;;;;;;;4.73;77.05;97916.78;5011663;28;20038;-75
2023/10/17 08:54:19;;;;;;;0.55;0.55;;;;;;;4.86;77.19;97929.63;5012842;28;20030;-74
2023/10/17 08:56:50;;;;;;;1.00;1.00;;;;;;;4.95;77.23;97931.38;5009862;28;20049;-75
2023/10/17 08:59:30;;;;;;;0.50;0.50;;;;;;;5.04;77.34;97931.28;5010967;28;20507;-75
2023/10/17 09:02:03;;;;;;;0.75;0.75;;;;;;;5.11;77.33;97934.16;5011835;28;20148;-75
2023/10/17 09:04:33;;;;;;;;;;;;;;;5.21;77.76;97932.25;5012313;28;20124;-75
2023/10/17 09:07:05;;;;;;;0.68;0.68;;;;;;;5.33;78.10;97938.13;5011642;28;19921;-74
2023/10/17 09:09:35;;;;;;;0.70;0.70;;;;;;;5.42;78.18;97931.91;5010834;28;20132;-75
2023/10/17 09:12:19;;;;;;;0.52;0.52;;;;;;;5.54;77.83;97930.69;5011857;28;20045;-74
2023/10/17 09:14:49;;;;;;;0.70;0.70;;;;;;;5.63;77.05;97932.41;5011304;28;20042;-75
2023/10/17 09:17:28;;;;;;;0.65;0.65;;;;;;;5.71;76.52;97919.22;5010863;28;20046;-74
2023/10/17 09:20:03;;;;;;;0.65;0.65;;;;;;;5.88;75.33;97917.53;5010955;28;20092;-77
2023/10/17 09:22:41;;;;;;;0.70;0.70;;;;;;;6.03;74.97;97910.66;5009446;28;20145;-74
2023/10/17 09:25:22;;;;;;;0.63;0.63;;;;;;;6.16;75.25;97905.75;5013116;28;20041;-74
2023/10/17 09:27:51;;;;;;;0.60;0.60;;;;;;;6.24;74.63;97904.94;5011461;28;20045;-75
2023/10/17 09:30:23;;;;;;;0.80;0.80;;;;;;;6.40;74.73;97904.19;5010918;28;20048;-75
2023/10/17 09:32:53;;;;;;;0.65;0.65;;;;;;;6.51;73.55;97896.78;5011288;28;20038;-75
2023/10/17 09:35:21;;;;;;;0.75;0.75;;;;;;;6.64;73.15;97894.47;5010462;28;20052;-75
2023/10/17 09:37:50;;;;;;;0.65;0.65;;;;;;;6.77;73.66;97895.81;5011242;28;20084;-75
2023/10/17 09:40:27;;;;;;;0.95;0.95;;;;;;;6.63;72.59;97895.50;5012089;28;20093;-75
2023/10/17 09:42:55;;;;;;;0.75;0.75;;;;;;;6.76;72.78;97908.25;5012260;28;20065;-76
2023/10/17 09:45:22;;;;;;;0.70;0.70;;;;;;;6.80;72.07;97901.66;5011269;28;20125;-75
2023/10/17 09:48:05;;;;;;;1.05;1.05;;;;;;;6.90;72.28;97909.44;5011022;28;20081;-75
2023/10/17 09:50:37;;;;;;;0.60;0.60;;;;;;;7.05;71.72;97894.56;5012261;28;20492;-75
2023/10/17 09:53:13;;;;;;;0.80;0.80;;;;;;;7.19;71.80;97885.09;5011470;28;20104;-77
2023/10/17 09:55:47;;;;;;;0.50;0.50;;;;;;;7.31;70.66;97881.09;5009621;28;20401;-76
2023/10/17 09:58:18;;;;;;;0.70;0.70;;;;;;;7.43;70.50;97878.94;5019088;28;20049;-74
2023/10/17 10:00:51;;;;;;;0.65;0.65;;;;;;;7.54;69.86;97884.72;5020771;28;20041;-74
2023/10/17 10:03:21;;;;;;;0.77;0.77;;;;;;;7.59;67.40;97881.56;5019173;28;20049;-75
2023/10/17 10:05:53;;;;;;;0.73;0.73;;;;;;;7.60;66.96;97869.94;5019822;28;20049;-75
2023/10/17 10:08:28;;;;;;;0.70;0.70;;;;;;;7.62;67.14;97867.94;5013730;28;20045;-76
2023/10/17 10:10:56;;;;;;;0.75;0.75;;;;;;;7.72;66.22;97871.25;5010728;28;20115;-75
2023/10/17 10:13:25;;;;;;;0.68;0.68;;;;;;;7.84;66.46;97861.09;5007970;28;20050;-74
2023/10/17 10:15:55;;;;;;;0.70;0.70;;;;;;;7.93;66.75;97855.56;5009983;28;20064;-75
2023/10/17 10:18:57;;;;;;;0.50;0.50;;;;;;;7.95;66.40;97856.25;5011357;28;20080;-74
2023/10/17 10:21:44;;;;;;;;;;;;;;;7.92;64.19;97850.44;5012752;28;20050;-75
2023/10/17 10:24:17;;;;;;;0.85;0.85;;;;;;;7.98;64.99;97845.28;5011149;28;19921;-74
2023/10/17 10:26:45;;;;;;;0.90;0.90;;;;;;;8.10;65.24;97846.53;5009516;28;20065;-76
2023/10/17 10:29:23;;;;;;;0.77;0.77;;;;;;;8.18;64.27;97850.16;5010723;28;20573;-75
2023/10/17 10:31:52;;;;;;;0.70;0.70;;;;;;;8.18;62.82;97843.03;5010475;28;20846;-74
2023/10/17 10:34:21;;;;;;;0.32;0.32;;;;;;;8.08;62.71;97835.25;5010940;28;20401;-75
2023/10/17 10:36:50;;;;;;;0.52;0.52;;;;;;;8.21;63.32;97829.38;5009295;28;20124;-74
2023/10/17 10:39:18;;;;;;;0.68;0.68;;;;;;;8.34;64.23;97827.00;5011243;28;20115;-74
2023/10/17 10:41:57;;;;;;;0.63;0.63;;;;;;;8.41;62.58;97827.13;5010283;28;20069;-76
2023/10/17 10:44:26;;;;;;;0.52;0.52;;;;;;;8.50;64.25;97826.09;5010428;28;20112;-74
2023/10/17 10:46:54;;;;;;;0.70;0.70;;;;;;;8.41;61.60;97822.63;5008936;28;20045;-75
2023/10/17 10:49:28;;;;;;;0.65;0.65;;;;;;;8.51;62.73;97821.59;5008459;28;20041;-75
2023/10/17 10:51:57;;;;;;;0.70;0.70;;;;;;;8.56;63.26;97817.41;5010191;28;20080;-76
2023/10/17 10:54:27;;;;;;;0.77;0.77;;;;;;;8.63;63.14;97810.34;5010577;28;20049;-74
2023/10/17 10:56:55;;;;;;;0.75;0.75;;;;;;;8.70;64.06;97811.34;5009787;28;20038;-75
2023/10/17 10:59:23;;;;;;;0.45;0.45;;;;;;;8.74;62.97;97815.28;5010133;28;20053;-74
2023/10/17 11:01:51;;;;;;;0.50;0.50;;;;;;;8.78;63.97;97810.44;5010452;28;20050;-75
2023/10/17 11:04:20;;;;;;;0.70;0.70;;;;;;;8.83;64.61;97800.06;5010441;28;20389;-74
2023/10/17 11:06:51;;;;;;;2.40;2.30;;;;;;;8.88;63.47;97794.22;5010109;28;20046;-75
2023/10/17 11:09:24;;;;;;;0.50;0.50;;;;;;;8.92;62.85;97796.38;5010514;28;20033;-75
2023/10/17 11:11:53;;;;;;;0.75;0.75;;;;;;;8.91;62.00;97799.19;5011945;28;20050;-74
2023/10/17 11:14:22;;;;;;;0.68;0.68;;;;;;;8.99;62.71;97796.47;5014446;28;20069;-73
2023/10/17 11:16:51;;;;;;;0.80;0.80;;;;;;;9.06;63.16;97803.53;5013296;28;20044;-74
2023/10/17 11:19:21;;;;;;;0.50;0.50;;;;;;;9.05;62.04;97796.56;5014470;28;20073;-75
2023/10/17 11:21:57;;;;;;;0.47;0.47;;;;;;;9.19;62.50;97792.28;5012681;28;20050;-74
2023/10/17 11:24:26;;;;;;;0.50;0.50;;;;;;;9.28;62.93;97793.03;5014467;28;20049;-74
2023/10/17 11:26:54;;;;;;;0.75;0.75;;;;;;;9.17;59.76;97795.13;5014054;28;20050;-74
2023/10/17 11:29:26;;;;;;;0.70;0.70;;;;;;;9.09;60.04;97789.88;5013951;28;20041;-74
2023/10/17 11:31:59;;;;;;;0.63;0.63;;;;;;;9.13;60.57;97791.19;5013261;28;20148;-75
2023/10/17 11:34:33;;;;;;;0.55;0.55;;;;;;;9.33;60.08;97799.47;5014131;28;20402;-74
2023/10/17 11:37:11;;;;;;;0.68;0.68;;;;;;;9.51;61.02;97788.47;5013597;28;20481;-74
2023/10/17 11:39:39;;;;;;;0.35;0.35;;;;;;;9.63;58.41;97791.50;5014905;28;20461;-74
2023/10/17 11:42:07;;;;;;;0.60;0.60;;;;;;;9.83;58.64;97792.59;5021037;28;20050;-75
2023/10/17 11:44:42;;;;;;;0.80;0.80;;;;;;;10.06;58.00;97789.81;5027869;28;20087;-77
2023/10/17 11:47:22;;;;;;;0.57;0.57;;;;;;;10.28;57.04;97791.53;5018842;28;20050;-74
2023/10/17 11:49:54;;;;;;;0.22;0.22;;;;;;;10.46;56.68;97780.47;5019443;28;20393;-74
2023/10/17 11:52:26;;;;;;;0.73;0.73;;;;;;;10.17;56.34;97786.69;5022029;28;20125;-76
2023/10/17 11:54:55;;;;;;;0.60;0.60;;;;;;;10.38;55.82;97789.41;5015089;28;20061;-76
2023/10/17 11:57:24;;;;;;;0.70;0.70;;;;;;;10.52;56.03;97775.19;5014539;28;20552;-73
2023/10/17 11:59:56;;;;;;;2.80;2.70;;;;;;;10.71;55.82;97776.38;5013450;28;20046;-76
2023/10/17 12:02:24;;;;;;;0.95;0.95;;;;;;;10.68;54.36;97782.13;5015547;28;20134;-73
2023/10/17 12:04:52;;;;;;;0.63;0.63;;;;;;;10.83;54.93;97779.38;5014249;28;20060;-73
2023/10/17 12:07:21;;;;;;;0.60;0.60;;;;;;;10.85;54.73;97777.34;5014319;28;20062;-73
2023/10/17 12:09:53;;;;;;;0.50;0.50;;;;;;;10.83;53.93;97772.19;5013612;28;20042;-73
2023/10/17 12:12:22;;;;;;;0.73;0.73;;;;;;;10.61;53.88;97781.22;5014569;28;20038;-73
2023/10/17 12:14:51;;;;;;;3.35;3.25;;;;;;;10.68;54.62;97773.28;5014235;28;20057;-73
2023/10/17 12:17:19;;;;;;;0.73;0.73;;;;;;;10.82;54.46;97777.72;5013198;28;20129;-75
2023/10/17 12:19:47;;;;;;;0.60;0.60;;;;;;;10.94;54.12;97776.19;5016766;28;20056;-73
2023/10/17 12:22:15;;;;;;;0.68;0.68;;;;;;;11.01;53.78;97779.72;5020428;28;20049;-73
2023/10/17 12:24:45;;;;;;;0.57;0.57;;;;;;;11.05;54.26;97767.66;5019222;28;20056;-75
2023/10/17 12:27:14;;;;;;;0.63;0.63;;;;;;;10.85;53.10;97764.00;5018665;28;20045;-76
2023/10/17 12:29:44;;;;;;;0.50;0.50;;;;;;;11.10;54.24;97762.56;5018194;28;20046;-75
2023/10/17 12:32:11;;;;;;;0.40;0.40;;;;;;;11.32;53.83;97756.13;5014038;28;20048;-75
2023/10/17 12:34:39;;;;;;;0.43;0.43;;;;;;;11.29;53.19;97759.22;5014821;28;20041;-73
2023/10/17 12:37:11;;;;;;;0.68;0.68;;;;;;;11.33;53.79;97748.94;5012310;28;20062;-76
2023/10/17 12:39:42;;;;;;;0.50;0.50;;;;;;;11.42;53.69;97755.00;5011523;28;20049;-74
2023/10/17 12:42:11;;;;;;;0.50;0.50;;;;;;;11.38;53.82;97750.03;5018062;28;20034;-73
2023/10/17 12:44:40;;;;;;;0.52;0.52;;;;;;;11.41;54.56;97738.13;5021962;28;20119;-75
2023/10/17 12:47:08;;;;;;;0.50;0.50;;;;;;;11.77;54.97;97744.09;5018638;28;20038;-75
2023/10/17 12:49:37;;;;;;;0.50;0.50;;;;;;;12.28;53.74;97740.19;5019082;28;20128;-74
2023/10/17 12:52:05;;;;;;;1.02;0.55;;;;;;;12.77;53.15;97739.88;5017658;28;20038;-73
2023/10/17 12:54:33;;;;;;;0.30;0.30;;;;;;;12.20;52.68;97738.53;5019761;28;20413;-76
2023/10/17 12:57:06;;;;;;;0.45;0.45;;;;;;;12.90;52.59;97739.03;5017507;28;20106;-77
2023/10/17 12:59:34;;;;;;;0.52;0.52;;;;;;;13.22;51.41;97738.25;5015538;28;20058;-75
2023/10/17 13:02:03;;;;;;;0.45;0.45;;;;;;;13.23;50.62;97738.03;5010814;28;20084;-76
2023/10/17 13:04:31;;;;;;;0.77;0.77;;;;;;;12.93;50.72;97725.25;5012402;28;20125;-76
2023/10/17 13:07:00;;;;;;;0.57;0.57;;;;;;;13.06;51.19;97739.47;5010895;28;20049;-78
2023/10/17 13:09:32;;;;;;;0.47;0.47;;;;;;;13.44;48.76;97736.97;5009738;28;20053;-74
2023/10/17 13:12:00;;;;;;;0.30;0.30;;;;;;;13.75;47.23;97730.09;5011274;28;20103;-74
2023/10/17 13:14:28;;;;;;;0.15;0.15;;;;;;;14.29;47.90;97730.50;5012117;28;20416;-75
2023/10/17 13:16:56;;;;;;;0.60;0.60;;;;;;;14.76;45.34;97722.97;5012096;28;20140;-74
2023/10/17 13:19:25;;;;;;;0.30;0.30;;;;;;;15.02;44.81;97716.59;5010922;28;20054;-75
2023/10/17 13:21:53;;;;;;;0.57;0.57;;;;;;;14.89;44.47;97719.38;5011827;28;20402;-75
2023/10/17 13:24:21;;;;;;;0.50;0.50;;;;;;;15.16;46.34;97712.72;5011431;28;20045;-75
2023/10/17 13:26:49;;;;;;;0.30;0.30;;;;;;;15.19;45.33;97711.47;5010714;28;20038;-75
2023/10/17 13:29:22;;;;;;;0.30;0.30;;;;;;;15.14;45.43;97708.63;5010877;28;20494;-75
2023/10/17 13:31:49;;;;;;;0.30;0.30;;;;;;;15.13;43.51;97693.53;5010823;28;20046;-75
2023/10/17 13:34:22;;;;;;;0.32;0.30;;;;;;;15.12;45.17;97692.72;5010734;28;20042;-74